Terminal Aerodrome Forecast
Issued by NWS

Home | Current Version | Previous Version | Text Only | Print | Product List | Glossary On
Versions: 1 2 3 4 5 6 7 8 9 10 11 12 13 14 15 16 17 18 19 20
000
FTUS42 KGSP 201700
TAFAND
TAF
KAND 201740Z 2018/2118 06008KT P6SM FEW070 SCT250
     FM210000 04004KT P6SM SCT250
     FM211400 27007KT P6SM FEW070=

USA.gov is the U.S. government's official web portal to all federal, state and local government web resources and services.